Time;durP1;ratioP1;P1;durP2;ratioP2;P2;SDS_P1;SDS_P2;PMS_P1;PMS_P2;Temp;Humidity;BMP_temperature;BMP_pressure;BME280_temperature;BME280_humidity;BME280_pressure;Samples;Min_cycle;Max_cycle;Signal;HPM_P1;HPM_P2
2021/05/21 00:02:02;;;;;;;14.3;10.6;;;;;;;7.83;100;98664.69;;;;
2021/05/21 00:12:00;;;;;;;15.8;11.2;;;;;;;7.53;100;98655.09;;;;
2021/05/21 00:21:58;;;;;;;11.3;9.4;;;;;;;7.35;100;98655.06;;;;
2021/05/21 00:31:57;;;;;;;12.1;9.4;;;;;;;7.14;100;98648.3;;;;
2021/05/21 00:41:55;;;;;;;15;10.4;;;;;;;7.04;100;98647.33;;;;
2021/05/21 00:51:53;;;;;;;14.5;10.2;;;;;;;6.96;100;98642.58;;;;
2021/05/21 01:01:52;;;;;;;15;11.7;;;;;;;6.89;100;98636.75;;;;
2021/05/21 01:11:50;;;;;;;15.5;12.6;;;;;;;6.89;100;98628.71;;;;
2021/05/21 01:21:48;;;;;;;14.4;10.2;;;;;;;6.92;100;98616.63;;;;
2021/05/21 01:31:46;;;;;;;17.2;12.5;;;;;;;6.83;100;98616.45;;;;
2021/05/21 01:41:44;;;;;;;13.5;10.7;;;;;;;6.79;100;98625.32;;;;
2021/05/21 01:51:42;;;;;;;14.3;9.6;;;;;;;6.63;100;98605.13;;;;
2021/05/21 02:01:41;;;;;;;16.2;9.3;;;;;;;6.52;100;98605.21;;;;
2021/05/21 02:21:39;;;;;;;13;11.3;;;;;;;6.2;100;98594.2;;;;
2021/05/21 02:31:35;;;;;;;14.9;10.9;;;;;;;5.9;100;98594.41;;;;
2021/05/21 02:41:33;;;;;;;13.9;10.3;;;;;;;5.82;100;98606.45;;;;
2021/05/21 02:51:31;;;;;;;11.3;9.4;;;;;;;5.76;100;98602.19;;;;
2021/05/21 03:01:29;;;;;;;9.6;7.8;;;;;;;5.76;100;98604.86;;;;
2021/05/21 03:11:27;;;;;;;13.2;10.7;;;;;;;5.88;100;98592;;;;
2021/05/21 03:21:25;;;;;;;10;8.3;;;;;;;6.02;100;98594.86;;;;
2021/05/21 03:31:23;;;;;;;8.8;7.1;;;;;;;6.5;100;98582.45;;;;
2021/05/21 03:41:22;;;;;;;11.2;9.3;;;;;;;6.84;100;98577.84;;;;
2021/05/21 03:51:20;;;;;;;13.8;9.8;;;;;;;7.03;100;98586.77;;;;
2021/05/21 04:01:18;;;;;;;11.8;10.3;;;;;;;7.11;100;98593.4;;;;
2021/05/21 04:11:16;;;;;;;15.6;11.1;;;;;;;7.19;100;98589.27;;;;
2021/05/21 04:21:15;;;;;;;15.1;12.3;;;;;;;7.3;100;98580.04;;;;
2021/05/21 04:31:13;;;;;;;15.6;11.5;;;;;;;7.67;100;98582.78;;;;
2021/05/21 04:41:11;;;;;;;14.3;11.7;;;;;;;8.2;100;98587.95;;;;
2021/05/21 04:51:10;;;;;;;16.8;9.8;;;;;;;8.78;100;98577.65;;;;
2021/05/21 05:01:08;;;;;;;12.3;9.4;;;;;;;9.28;100;98582.07;;;;
2021/05/21 05:11:07;;;;;;;16.8;12.6;;;;;;;9.92;100;98583.7;;;;
2021/05/21 05:21:05;;;;;;;15;10.8;;;;;;;10.49;100;98574.04;;;;
2021/05/21 05:31:04;;;;;;;6.6;3.8;;;;;;;11.16;100;98573.13;;;;
2021/05/21 05:41:02;;;;;;;7.9;3.2;;;;;;;11.75;100;98575.25;;;;
2021/05/21 05:51:01;;;;;;;7.3;4.3;;;;;;;12.76;100;98569.35;;;;
2021/05/21 06:01:00;;;;;;;4.8;3.5;;;;;;;13.09;100;98556.06;;;;
2021/05/21 06:10:59;;;;;;;5.3;3.3;;;;;;;13.57;100;98559.17;;;;
2021/05/21 06:20:58;;;;;;;6;4.3;;;;;;;13.9;100;98556.59;;;;
2021/05/21 06:30:57;;;;;;;5.9;3.2;;;;;;;14.45;99.66699;98548.19;;;;
2021/05/21 06:40:57;;;;;;;4.8;2.3;;;;;;;15.42;89.26367;98534.78;;;;
2021/05/21 06:50:56;;;;;;;5;2.3;;;;;;;15.36;85.21387;98528;;;;
2021/05/21 07:00:57;;;;;;;5.6;2.2;;;;;;;15.89;85.67969;98507.13;;;;
2021/05/21 07:10:55;;;;;;;3.5;2;;;;;;;15.58;84.60645;98507.77;;;;
2021/05/21 07:20:59;;;;;;;4.1;2.1;;;;;;;15.36;83.54102;98484.55;;;;
2021/05/21 07:30:54;;;;;;;2.6;1.3;;;;;;;15.76;81.90723;98484.61;;;;
2021/05/21 07:40:53;;;;;;;5;2;;;;;;;16.34;82.33398;98483.17;;;;
2021/05/21 07:50:53;;;;;;;4.3;1.7;;;;;;;16.21;80.78906;98478.14;;;;
2021/05/21 08:00:53;;;;;;;2.9;1.2;;;;;;;16.34;80.52832;98455.18;;;;
2021/05/21 08:10:51;;;;;;;2.9;1.5;;;;;;;16.79;78.23242;98447.45;;;;
2021/05/21 08:20:51;;;;;;;2.4;1;;;;;;;17.04;74.26758;98431.72;;;;
2021/05/21 08:30:52;;;;;;;3.6;1.6;;;;;;;17.02;71.58203;98434.78;;;;
2021/05/21 08:40:50;;;;;;;2.3;1.1;;;;;;;17.25;71.69824;98423.25;;;;
2021/05/21 08:50:49;;;;;;;2.9;1;;;;;;;17.99;70.83105;98414.72;;;;
2021/05/21 09:00:49;;;;;;;2.2;1;;;;;;;18.49;69.54102;98402.79;;;;
2021/05/21 09:10:49;;;;;;;3.2;1.1;;;;;;;18.12;66.75293;98373.66;;;;
2021/05/21 09:20:51;;;;;;;2;0.7;;;;;;;18.42;61.51855;98380.83;;;;
2021/05/21 09:31:12;;;;;;;1.7;0.8;;;;;;;18.31;62.875;98368.14;;;;
2021/05/21 09:40:48;;;;;;;2.7;1;;;;;;;18.17;61.94434;98351.53;;;;
2021/05/21 09:50:49;;;;;;;2.6;1;;;;;;;18.71;55.59473;98349.34;;;;
2021/05/21 10:01:04;;;;;;;3.2;1.2;;;;;;;18.92;53.1543;98332.48;;;;
2021/05/21 10:10:47;;;;;;;3.4;0.9;;;;;;;18.1;53.40332;98320.25;;;;
2021/05/21 10:20:47;;;;;;;2.5;1.2;;;;;;;18.15;61.83691;98307.47;;;;
2021/05/21 10:30:47;;;;;;;2.6;0.8;;;;;;;18.89;59.3877;98298.52;;;;
2021/05/21 10:40:47;;;;;;;2.6;1.1;;;;;;;19.52;57.81543;98259.52;;;;
2021/05/21 10:50:46;;;;;;;2.9;1;;;;;;;19.53;56.89063;98245.5;;;;
2021/05/21 11:01:11;;;;;;;4.2;1.5;;;;;;;19.74;56.84766;98238.66;;;;
2021/05/21 11:10:50;;;;;;;4;1.6;;;;;;;19.85;55.79395;98223.15;;;;
2021/05/21 11:20:56;;;;;;;2.2;1;;;;;;;19.51;43.89941;98208.73;;;;
2021/05/21 11:30:49;;;;;;;2.3;1;;;;;;;20.04;39.0459;98206.5;;;;
2021/05/21 11:40:48;;;;;;;2.3;0.7;;;;;;;20.13;36.28906;98176.09;;;;
2021/05/21 11:50:46;;;;;;;3.2;0.5;;;;;;;20.16;35.75488;98176.12;;;;
2021/05/21 12:00:45;;;;;;;1.3;0.7;;;;;;;20.5;36.98633;98158.38;;;;
2021/05/21 12:10:57;;;;;;;3.1;0.8;;;;;;;20.68;35.21289;98155.72;;;;
2021/05/21 12:20:53;;;;;;;3.3;1.1;;;;;;;21.23;35.01074;98145.38;;;;
2021/05/21 12:30:46;;;;;;;4.5;1.1;;;;;;;21.47;40.31836;98144.63;;;;
2021/05/21 12:40:52;;;;;;;2.1;1;;;;;;;22.06;35.70898;98140.36;;;;
2021/05/21 12:50:46;;;;;;;4;0.7;;;;;;;22.09;36.4375;98114.08;;;;
2021/05/21 13:00:51;;;;;;;4.2;1.5;;;;;;;22.07;38.40527;98102.72;;;;
2021/05/21 13:10:46;;;;;;;2.7;1;;;;;;;22.16;35.35352;98080.34;;;;
2021/05/21 13:20:46;;;;;;;2.6;1;;;;;;;22.14;34.62402;98075.27;;;;
2021/05/21 13:30:47;;;;;;;2.5;0.9;;;;;;;22.15;34.63672;98092.48;;;;
2021/05/21 13:40:47;;;;;;;5.5;1.4;;;;;;;22.47;36.5166;98079.45;;;;
2021/05/21 13:50:47;;;;;;;2.2;0.7;;;;;;;22.43;33.86035;98073.19;;;;
2021/05/21 14:00:47;;;;;;;2;0.7;;;;;;;22.13;35.26855;98076.43;;;;
2021/05/21 14:10:47;;;;;;;1.4;0.6;;;;;;;21.58;35.5293;98071.39;;;;
2021/05/21 14:20:48;;;;;;;4.1;1.6;;;;;;;22.02;36.19824;98068.22;;;;
2021/05/21 14:30:48;;;;;;;2.8;0.8;;;;;;;22.02;36.3623;98062.73;;;;
2021/05/21 14:40:48;;;;;;;2.7;0.9;;;;;;;22.09;38.98047;98048.2;;;;
2021/05/21 14:50:48;;;;;;;5;1.1;;;;;;;21.66;37.43359;98052.95;;;;
2021/05/21 15:00:49;;;;;;;1.9;1.1;;;;;;;20.87;40.07813;98037.61;;;;
2021/05/21 15:10:50;;;;;;;2;1;;;;;;;21.05;38.78516;98032.95;;;;
2021/05/21 15:30:49;;;;;;;3.2;1.4;;;;;;;21.74;35.58984;98020.81;;;;
2021/05/21 15:40:49;;;;;;;3.3;0.9;;;;;;;21.49;36.20215;98010.66;;;;
2021/05/21 15:50:58;;;;;;;8.8;2.2;;;;;;;21.56;37.43652;98010.65;;;;
2021/05/21 16:00:49;;;;;;;2.2;1;;;;;;;22.23;35.67578;98004.23;;;;
2021/05/21 16:10:50;;;;;;;2.1;1;;;;;;;21.99;37.16895;97994.92;;;;
2021/05/21 16:20:50;;;;;;;3.6;0.9;;;;;;;22.49;36.82227;97997.47;;;;
2021/05/21 16:30:50;;;;;;;6.6;2.1;;;;;;;22.94;36.90723;97990.91;;;;
2021/05/21 16:40:51;;;;;;;3.9;1.6;;;;;;;24.6;33.69434;97988.48;;;;
2021/05/21 16:50:51;;;;;;;4;1.4;;;;;;;23.93;33.7041;98001.07;;;;
2021/05/21 17:00:52;;;;;;;6.1;1.5;;;;;;;23.64;34.11719;97991.53;;;;
2021/05/21 17:10:52;;;;;;;3.8;1.3;;;;;;;21.47;36.58691;97995.78;;;;
2021/05/21 17:51:10;;;;;;;3.5;1.4;;;;;;;17.11;44.55371;97996.95;;;;
2021/05/21 18:11:07;;;;;;;3.7;1.9;;;;;;;16.13;48.47754;97992.41;;;;
2021/05/21 19:01:03;;;;;;;11.9;3.1;;;;;;;15.24;55.18164;97995.09;;;;
2021/05/21 19:11:05;;;;;;;6.9;3.4;;;;;;;15.23;54.98633;98012.52;;;;
2021/05/21 19:20:55;;;;;;;6.1;2.6;;;;;;;15.22;55.2832;98010.93;;;;
2021/05/21 19:41:09;;;;;;;9.1;6.1;;;;;;;14.84;64.66113;98009.62;;;;
2021/05/21 20:20:43;;;;;;;10.1;5.4;;;;;;;14.07;87.54102;98014.48;;;;
2021/05/21 20:41:07;;;;;;;8.8;2.5;;;;;;;14.06;88.41211;98012.89;;;;
2021/05/21 21:00:49;;;;;;;4.9;2.7;;;;;;;13.93;92.42773;98003.23;;;;
2021/05/21 21:10:45;;;;;;;3.6;2.2;;;;;;;13.95;94.03906;98006.38;;;;
2021/05/21 21:30:52;;;;;;;4.4;1.7;;;;;;;13.58;100;97958.85;;;;
2021/05/21 21:50:55;;;;;;;7.6;3.4;;;;;;;12.98;100;97951.58;;;;
2021/05/21 22:00:42;;;;;;;7.5;5.2;;;;;;;12.29;100;97936.15;;;;
2021/05/21 22:20:33;;;;;;;8.3;4.6;;;;;;;11.92;100;97896.66;;;;
2021/05/21 22:30:29;;;;;;;7.1;3.9;;;;;;;12.04;100;97877.8;;;;
2021/05/21 22:40:29;;;;;;;5.2;2.8;;;;;;;12.2;100;97873.33;;;;
2021/05/21 22:50:27;;;;;;;6.7;4.2;;;;;;;12.11;100;97880.75;;;;
2021/05/21 23:00:26;;;;;;;10.1;4.4;;;;;;;12.25;100;97894.7;;;;
2021/05/21 23:10:25;;;;;;;4.5;2.8;;;;;;;12.24;100;97903.16;;;;
2021/05/21 23:20:24;;;;;;;6.2;3.8;;;;;;;12.14;100;97914.39;;;;
2021/05/21 23:30:23;;;;;;;7.9;3.3;;;;;;;11.95;100;97934.59;;;;
2021/05/21 23:40:22;;;;;;;7.8;3.5;;;;;;;11.86;100;97935.79;;;;
2021/05/21 23:50:21;;;;;;;4.6;2.8;;;;;;;11.79;100;97930.13;;;;
